Ashley, Wisconsin
Current Conditions -  °F | °C
As of 12:45 PM on Saturday 27 Dec 2014 (Local Time) from KCWA Reporting Station
Overcast Overcast  
Wind Chill: -5°   Ceiling: 1300
Heat Index: -1°   Visibility: 10mi
Dew Point: -1°   Wind: 7mph
Humidity: 100%   Direction: 310°NW
Pressure: 29.86"   Gusts: NA
Location:  44.7605°N, 89.5918°W
Report Text: KCWA 271845Z 31006KT 10SM OVC013 M01/M01 A2986
Loading
Personal Weather Stations






























Interactive Weather Map New forecast layout! Learn more

10-Day Weather Forecast

Advertisements
Track Severe Weather on mobile